Time;durP1;ratioP1;P1;durP2;ratioP2;P2;SDS_P1;SDS_P2;PMS_P1;PMS_P2;Temp;Humidity;BMP_temperature;BMP_pressure;BME280_temperature;BME280_humidity;BME280_pressure;Samples;Min_cycle;Max_cycle;Signal;HPM_P1;HPM_P2
2023/10/21 00:00:51;;;;;;;0.00;0.00;;;;;;;;;;4996273;28;20749;-71
2023/10/21 00:03:17;;;;;;;0.00;0.00;;;;;;;;;;4978052;28;20062;-71
2023/10/21 00:05:43;;;;;;;0.00;0.00;;;;;;;;;;4978955;28;20042;-71
2023/10/21 00:08:09;;;;;;;0.00;0.00;;;;;;;;;;4976782;28;20032;-71
2023/10/21 00:10:35;;;;;;;0.00;0.00;;;;;;;;;;4976877;28;20034;-71
2023/10/21 00:13:01;;;;;;;0.00;0.00;;;;;;;;;;4976953;28;20485;-71
2023/10/21 00:15:27;;;;;;;0.00;0.00;;;;;;;;;;4977151;28;20061;-71
2023/10/21 00:17:53;;;;;;;0.00;0.00;;;;;;;;;;4977614;28;20041;-71
2023/10/21 00:20:19;;;;;;;0.00;0.00;;;;;;;;;;4982369;28;20042;-71
2023/10/21 00:22:45;;;;;;;0.00;0.00;;;;;;;;;;4983294;28;20031;-71
2023/10/21 00:25:11;;;;;;;0.00;0.00;;;;;;;;;;4979121;28;20051;-71
2023/10/21 00:27:37;;;;;;;0.00;0.00;;;;;;;;;;4982308;28;20049;-71
2023/10/21 00:30:03;;;;;;;0.00;0.00;;;;;;;;;;4982386;28;20402;-71
2023/10/21 00:32:29;;;;;;;0.00;0.00;;;;;;;;;;5015250;28;20584;-71
2023/10/21 00:34:55;;;;;;;0.00;0.00;;;;;;;;;;5000568;28;20046;-71
2023/10/21 00:37:21;;;;;;;0.00;0.00;;;;;;;;;;4980695;28;20355;-70
2023/10/21 00:39:47;;;;;;;0.00;0.00;;;;;;;;;;4982871;28;20037;-71
2023/10/21 00:42:13;;;;;;;0.00;0.00;;;;;;;;;;4975758;28;20604;-71
2023/10/21 00:44:39;;;;;;;0.00;0.00;;;;;;;;;;4982623;28;20551;-71
2023/10/21 00:47:05;;;;;;;0.00;0.00;;;;;;;;;;4976553;28;20038;-71
2023/10/21 00:49:32;;;;;;;0.00;0.00;;;;;;;;;;4982841;28;20073;-71
2023/10/21 00:52:04;;;;;;;0.00;0.00;;;;;;;;;;4980168;28;20827;-71
2023/10/21 00:54:30;;;;;;;0.00;0.00;;;;;;;;;;4989748;28;20726;-71
2023/10/21 00:56:56;;;;;;;0.00;0.00;;;;;;;;;;4981748;28;20049;-71
2023/10/21 00:59:23;;;;;;;0.00;0.00;;;;;;;;;;4980515;28;20141;-71
2023/10/21 01:01:49;;;;;;;0.00;0.00;;;;;;;;;;4982902;28;20046;-71
2023/10/21 01:04:16;;;;;;;0.00;0.00;;;;;;;;;;4983555;28;20038;-71
2023/10/21 01:06:43;;;;;;;0.00;0.00;;;;;;;;;;4979050;28;20049;-70
2023/10/21 01:09:10;;;;;;;0.00;0.00;;;;;;;;;;4980401;28;20046;-71
2023/10/21 01:11:37;;;;;;;0.00;0.00;;;;;;;;;;4981820;28;20043;-71
2023/10/21 01:14:03;;;;;;;0.00;0.00;;;;;;;;;;4982730;28;20116;-71
2023/10/21 01:16:29;;;;;;;0.00;0.00;;;;;;;;;;4981459;28;20045;-71
2023/10/21 01:18:55;;;;;;;0.00;0.00;;;;;;;;;;4978300;28;20046;-71
2023/10/21 01:21:21;;;;;;;0.00;0.00;;;;;;;;;;4981528;28;20108;-71
2023/10/21 01:23:47;;;;;;;0.00;0.00;;;;;;;;;;4981155;28;20493;-71
2023/10/21 01:26:13;;;;;;;0.00;0.00;;;;;;;;;;4981306;28;20038;-71
2023/10/21 01:28:40;;;;;;;0.00;0.00;;;;;;;;;;4982480;28;20039;-71
2023/10/21 01:31:06;;;;;;;0.00;0.00;;;;;;;;;;4981998;28;20038;-71
2023/10/21 01:33:32;;;;;;;0.00;0.00;;;;;;;;;;4982256;28;20418;-71
2023/10/21 01:35:58;;;;;;;0.00;0.00;;;;;;;;;;4982983;28;20079;-71
2023/10/21 01:38:24;;;;;;;0.00;0.00;;;;;;;;;;4981659;28;20486;-71
2023/10/21 01:40:50;;;;;;;0.00;0.00;;;;;;;;;;4979604;28;20038;-71
2023/10/21 01:43:16;;;;;;;0.00;0.00;;;;;;;;;;4981069;28;20483;-71
2023/10/21 01:45:42;;;;;;;0.00;0.00;;;;;;;;;;4981695;28;20038;-72
2023/10/21 01:48:11;;;;;;;0.00;0.00;;;;;;;;;;4980971;28;20743;-71
2023/10/21 01:50:37;;;;;;;0.00;0.00;;;;;;;;;;4981452;28;20031;-71
2023/10/21 01:53:03;;;;;;;0.00;0.00;;;;;;;;;;4980209;28;20049;-71
2023/10/21 01:55:29;;;;;;;0.00;0.00;;;;;;;;;;4994830;28;20042;-71
2023/10/21 01:57:55;;;;;;;0.00;0.00;;;;;;;;;;4982519;28;20496;-71
2023/10/21 02:00:22;;;;;;;0.00;0.00;;;;;;;;;;4995867;28;20039;-70
2023/10/21 02:02:52;;;;;;;0.00;0.00;;;;;;;;;;4994425;28;20041;-71
2023/10/21 02:05:18;;;;;;;0.00;0.00;;;;;;;;;;4975670;28;20060;-71
2023/10/21 02:07:44;;;;;;;0.00;0.00;;;;;;;;;;4983621;28;20097;-72
2023/10/21 02:10:10;;;;;;;0.00;0.00;;;;;;;;;;4979220;28;20042;-72
2023/10/21 02:12:37;;;;;;;0.00;0.00;;;;;;;;;;4980746;28;20569;-74
2023/10/21 02:15:03;;;;;;;0.00;0.00;;;;;;;;;;4978430;28;20097;-73
2023/10/21 02:17:29;;;;;;;0.00;0.00;;;;;;;;;;4986570;28;20046;-77
2023/10/21 02:19:58;;;;;;;0.00;0.00;;;;;;;;;;4989014;28;20042;-77
2023/10/21 02:22:24;;;;;;;0.00;0.00;;;;;;;;;;4979736;28;20078;-75
2023/10/21 02:24:51;;;;;;;0.00;0.00;;;;;;;;;;4981014;28;20050;-74
2023/10/21 02:27:17;;;;;;;0.00;0.00;;;;;;;;;;4978980;28;20459;-74
2023/10/21 02:29:43;;;;;;;0.00;0.00;;;;;;;;;;4983507;28;20048;-75
2023/10/21 02:32:09;;;;;;;0.00;0.00;;;;;;;;;;4969458;28;20037;-76
2023/10/21 02:34:35;;;;;;;0.00;0.00;;;;;;;;;;4979201;28;20045;-76
2023/10/21 02:37:01;;;;;;;0.00;0.00;;;;;;;;;;4979624;28;20856;-74
2023/10/21 02:39:27;;;;;;;0.00;0.00;;;;;;;;;;4978200;28;20768;-75
2023/10/21 02:41:53;;;;;;;0.00;0.00;;;;;;;;;;4979792;28;20042;-73
2023/10/21 02:44:19;;;;;;;0.00;0.00;;;;;;;;;;4985438;28;20038;-74
2023/10/21 02:46:45;;;;;;;0.00;0.00;;;;;;;;;;4980560;28;20030;-74
2023/10/21 02:49:11;;;;;;;0.00;0.00;;;;;;;;;;4973422;28;20054;-73
2023/10/21 02:51:39;;;;;;;0.00;0.00;;;;;;;;;;4980065;28;20521;-73
2023/10/21 02:54:05;;;;;;;0.00;0.00;;;;;;;;;;4977701;28;20070;-73
2023/10/21 02:56:31;;;;;;;0.00;0.00;;;;;;;;;;4991880;28;20092;-73
2023/10/21 02:58:57;;;;;;;0.00;0.00;;;;;;;;;;4990433;28;20042;-75
2023/10/21 03:01:26;;;;;;;0.00;0.00;;;;;;;;;;4979942;28;20038;-75
2023/10/21 03:03:52;;;;;;;0.00;0.00;;;;;;;;;;4980163;28;20049;-73
2023/10/21 03:06:19;;;;;;;0.00;0.00;;;;;;;;;;4979316;28;20045;-77
2023/10/21 03:08:46;;;;;;;0.00;0.00;;;;;;;;;;4981605;28;20072;-74
2023/10/21 03:11:12;;;;;;;0.00;0.00;;;;;;;;;;4983976;28;20569;-74
2023/10/21 03:13:38;;;;;;;0.00;0.00;;;;;;;;;;4980723;28;20494;-74
2023/10/21 03:16:08;;;;;;;0.00;0.00;;;;;;;;;;4979179;28;20514;-76
2023/10/21 03:18:35;;;;;;;0.00;0.00;;;;;;;;;;4977132;28;20129;-75
2023/10/21 03:21:01;;;;;;;0.00;0.00;;;;;;;;;;4979679;28;20099;-73
2023/10/21 03:23:27;;;;;;;0.00;0.00;;;;;;;;;;4985907;28;20046;-73
2023/10/21 03:26:04;;;;;;;0.00;0.00;;;;;;;;;;4978573;28;20390;-73
2023/10/21 03:28:30;;;;;;;0.00;0.00;;;;;;;;;;5016906;28;20045;-73
2023/10/21 03:30:57;;;;;;;0.00;0.00;;;;;;;;;;4999529;28;20501;-74
2023/10/21 03:33:24;;;;;;;0.00;0.00;;;;;;;;;;4995785;28;20038;-72
2023/10/21 03:36:04;;;;;;;0.00;0.00;;;;;;;;;;4996385;28;20087;-73
2023/10/21 03:38:30;;;;;;;0.00;0.00;;;;;;;;;;4984598;28;20576;-73
2023/10/21 03:40:56;;;;;;;0.00;0.00;;;;;;;;;;4979579;28;20085;-73
2023/10/21 03:43:23;;;;;;;0.00;0.00;;;;;;;;;;4973756;28;20046;-74
2023/10/21 03:45:49;;;;;;;0.00;0.00;;;;;;;;;;4975241;28;20454;-76
2023/10/21 03:48:15;;;;;;;0.00;0.00;;;;;;;;;;4986531;28;20034;-75
2023/10/21 03:50:41;;;;;;;0.00;0.00;;;;;;;;;;4989265;28;20482;-74
2023/10/21 03:53:07;;;;;;;0.00;0.00;;;;;;;;;;4977406;28;20469;-74
2023/10/21 03:55:33;;;;;;;0.00;0.00;;;;;;;;;;4978709;28;20063;-74
2023/10/21 03:57:59;;;;;;;0.00;0.00;;;;;;;;;;4982728;28;20129;-74
2023/10/21 04:00:25;;;;;;;0.00;0.00;;;;;;;;;;4975337;28;20095;-76
2023/10/21 04:02:51;;;;;;;0.00;0.00;;;;;;;;;;4979411;28;20054;-75
2023/10/21 04:05:17;;;;;;;0.00;0.00;;;;;;;;;;4981312;28;20042;-74
2023/10/21 04:07:44;;;;;;;0.00;0.00;;;;;;;;;;4980419;28;20038;-74
2023/10/21 04:10:10;;;;;;;0.00;0.00;;;;;;;;;;4980802;28;20049;-73
2023/10/21 04:12:36;;;;;;;0.00;0.00;;;;;;;;;;4977438;28;20050;-72
2023/10/21 04:15:03;;;;;;;0.00;0.00;;;;;;;;;;4981321;28;20039;-72
2023/10/21 04:17:29;;;;;;;0.00;0.00;;;;;;;;;;4978406;28;20065;-72
2023/10/21 04:19:57;;;;;;;0.00;0.00;;;;;;;;;;4979364;28;20061;-72
2023/10/21 04:22:23;;;;;;;0.00;0.00;;;;;;;;;;4977515;28;20042;-74
2023/10/21 04:24:49;;;;;;;0.00;0.00;;;;;;;;;;4978650;28;20573;-73
2023/10/21 04:27:15;;;;;;;0.00;0.00;;;;;;;;;;4977521;28;20681;-73
2023/10/21 04:29:40;;;;;;;0.00;0.00;;;;;;;;;;4978838;28;20125;-72
2023/10/21 04:32:06;;;;;;;0.00;0.00;;;;;;;;;;4978127;28;20046;-71
2023/10/21 04:34:32;;;;;;;0.00;0.00;;;;;;;;;;4978382;28;20046;-72
2023/10/21 04:36:58;;;;;;;0.00;0.00;;;;;;;;;;4978779;28;20038;-72
2023/10/21 04:39:24;;;;;;;0.00;0.00;;;;;;;;;;4989038;28;20034;-71
2023/10/21 04:41:50;;;;;;;0.00;0.00;;;;;;;;;;4982275;28;20126;-71
2023/10/21 04:44:16;;;;;;;0.00;0.00;;;;;;;;;;4975518;28;20066;-71
2023/10/21 04:46:42;;;;;;;0.00;0.00;;;;;;;;;;4976766;28;20716;-71
2023/10/21 04:49:08;;;;;;;0.00;0.00;;;;;;;;;;4969788;28;20126;-71
2023/10/21 04:51:34;;;;;;;0.00;0.00;;;;;;;;;;4986740;28;20036;-71
2023/10/21 04:54:00;;;;;;;0.00;0.00;;;;;;;;;;4981574;28;20046;-71
2023/10/21 04:56:26;;;;;;;0.00;0.00;;;;;;;;;;4975182;28;20062;-71
2023/10/21 04:58:52;;;;;;;0.00;0.00;;;;;;;;;;4980038;28;20050;-71
2023/10/21 05:01:18;;;;;;;0.00;0.00;;;;;;;;;;4977646;28;20030;-71
2023/10/21 05:03:44;;;;;;;0.00;0.00;;;;;;;;;;4981678;28;20042;-71
2023/10/21 05:06:10;;;;;;;0.00;0.00;;;;;;;;;;4981402;28;20157;-71
2023/10/21 05:08:36;;;;;;;0.00;0.00;;;;;;;;;;4982054;28;20026;-71
2023/10/21 05:11:02;;;;;;;0.00;0.00;;;;;;;;;;4980471;28;20027;-70
2023/10/21 05:13:29;;;;;;;0.00;0.00;;;;;;;;;;4983199;28;20042;-71
2023/10/21 05:15:54;;;;;;;0.00;0.00;;;;;;;;;;4983790;28;20675;-71
2023/10/21 05:18:20;;;;;;;0.00;0.00;;;;;;;;;;4984847;28;20126;-71
2023/10/21 05:20:46;;;;;;;0.00;0.00;;;;;;;;;;4981584;28;20034;-71
2023/10/21 05:23:12;;;;;;;0.00;0.00;;;;;;;;;;4979013;28;20129;-71
2023/10/21 05:25:38;;;;;;;0.00;0.00;;;;;;;;;;4980267;28;20505;-71
2023/10/21 05:28:05;;;;;;;0.00;0.00;;;;;;;;;;4984468;28;20027;-71
2023/10/21 05:30:31;;;;;;;0.00;0.00;;;;;;;;;;4983058;28;21022;-71
2023/10/21 05:32:57;;;;;;;0.00;0.00;;;;;;;;;;4988780;28;20034;-71
2023/10/21 05:35:23;;;;;;;0.00;0.00;;;;;;;;;;4983261;28;20053;-71
2023/10/21 05:37:49;;;;;;;0.00;0.00;;;;;;;;;;4989238;28;20030;-71
2023/10/21 05:40:15;;;;;;;0.00;0.00;;;;;;;;;;4985600;28;20035;-71
2023/10/21 05:42:41;;;;;;;0.00;0.00;;;;;;;;;;4988740;28;20035;-71
2023/10/21 05:45:08;;;;;;;0.00;0.00;;;;;;;;;;4978307;28;20056;-71
2023/10/21 05:47:35;;;;;;;0.00;0.00;;;;;;;;;;4983179;28;20497;-72
2023/10/21 05:50:02;;;;;;;0.00;0.00;;;;;;;;;;4986795;28;20072;-71
2023/10/21 05:52:28;;;;;;;0.00;0.00;;;;;;;;;;4981392;28;20046;-71
2023/10/21 05:54:54;;;;;;;0.00;0.00;;;;;;;;;;4994948;28;20038;-71
2023/10/21 05:57:22;;;;;;;0.00;0.00;;;;;;;;;;4987988;28;20079;-71
2023/10/21 05:59:48;;;;;;;0.00;0.00;;;;;;;;;;4987923;28;20505;-71
2023/10/21 06:02:14;;;;;;;0.00;0.00;;;;;;;;;;4977988;28;20034;-72
2023/10/21 06:04:40;;;;;;;0.00;0.00;;;;;;;;;;4980249;28;20536;-71
2023/10/21 06:07:06;;;;;;;0.00;0.00;;;;;;;;;;4978871;28;20182;-71
2023/10/21 06:09:32;;;;;;;0.00;0.00;;;;;;;;;;4982147;28;20489;-71
2023/10/21 06:11:59;;;;;;;0.00;0.00;;;;;;;;;;4982891;28;20038;-71
2023/10/21 06:14:25;;;;;;;0.00;0.00;;;;;;;;;;4982981;28;20486;-71
2023/10/21 06:16:51;;;;;;;0.00;0.00;;;;;;;;;;4981330;28;20109;-71
2023/10/21 06:19:17;;;;;;;0.00;0.00;;;;;;;;;;4982136;28;20672;-71
2023/10/21 06:21:43;;;;;;;0.00;0.00;;;;;;;;;;4986226;28;20612;-72
2023/10/21 06:24:09;;;;;;;0.00;0.00;;;;;;;;;;4983049;28;20030;-71
2023/10/21 06:26:36;;;;;;;0.00;0.00;;;;;;;;;;4979698;28;20543;-71
2023/10/21 06:29:02;;;;;;;0.00;0.00;;;;;;;;;;4976341;28;20042;-70
2023/10/21 06:31:28;;;;;;;0.00;0.00;;;;;;;;;;4974989;28;20042;-71
2023/10/21 06:33:54;;;;;;;0.00;0.00;;;;;;;;;;4981669;28;20812;-71
2023/10/21 06:36:20;;;;;;;0.00;0.00;;;;;;;;;;4975664;28;20038;-71
2023/10/21 06:38:49;;;;;;;0.00;0.00;;;;;;;;;;4973170;28;20072;-71
2023/10/21 06:41:15;;;;;;;0.00;0.00;;;;;;;;;;4980575;28;20751;-71
2023/10/21 06:43:41;;;;;;;0.00;0.00;;;;;;;;;;4975058;28;20121;-71
2023/10/21 06:46:07;;;;;;;0.00;0.00;;;;;;;;;;4972358;28;20034;-70
2023/10/21 06:48:33;;;;;;;0.00;0.00;;;;;;;;;;4974734;28;20036;-71
2023/10/21 06:50:59;;;;;;;0.00;0.00;;;;;;;;;;4985840;28;20406;-71
2023/10/21 06:53:26;;;;;;;0.00;0.00;;;;;;;;;;4975209;28;20030;-71
2023/10/21 06:55:53;;;;;;;0.00;0.00;;;;;;;;;;4980870;28;20042;-74
2023/10/21 06:58:19;;;;;;;0.00;0.00;;;;;;;;;;4982770;28;20065;-73
2023/10/21 07:00:45;;;;;;;0.00;0.00;;;;;;;;;;4976695;28;20038;-71
2023/10/21 07:03:11;;;;;;;0.00;0.00;;;;;;;;;;4982409;28;20049;-72
2023/10/21 07:05:38;;;;;;;0.00;0.00;;;;;;;;;;4960545;28;20042;-71
2023/10/21 07:08:05;;;;;;;0.00;0.00;;;;;;;;;;4974171;28;20438;-71
2023/10/21 07:10:31;;;;;;;0.00;0.00;;;;;;;;;;4973555;28;20034;-71
2023/10/21 07:13:01;;;;;;;0.00;0.00;;;;;;;;;;4976291;28;20122;-71
2023/10/21 07:15:28;;;;;;;0.00;0.00;;;;;;;;;;4974601;28;20042;-71
2023/10/21 07:17:54;;;;;;;0.00;0.00;;;;;;;;;;4976566;28;20041;-71
2023/10/21 07:20:20;;;;;;;0.00;0.00;;;;;;;;;;4972099;28;20185;-71
2023/10/21 07:22:46;;;;;;;0.00;0.00;;;;;;;;;;4976620;28;20038;-70
2023/10/21 07:25:12;;;;;;;0.00;0.00;;;;;;;;;;4963578;28;20061;-70
2023/10/21 07:27:38;;;;;;;0.00;0.00;;;;;;;;;;4973717;28;20156;-71
2023/10/21 07:30:04;;;;;;;0.00;0.00;;;;;;;;;;4977002;28;20636;-71
2023/10/21 07:32:31;;;;;;;0.00;0.00;;;;;;;;;;4975893;28;20038;-70
2023/10/21 07:34:57;;;;;;;0.00;0.00;;;;;;;;;;4963600;28;20140;-71
2023/10/21 07:37:23;;;;;;;0.00;0.00;;;;;;;;;;4975647;28;20572;-70
2023/10/21 07:39:48;;;;;;;0.00;0.00;;;;;;;;;;4974407;28;20049;-70
2023/10/21 07:42:14;;;;;;;0.00;0.00;;;;;;;;;;4985517;28;20045;-70
2023/10/21 07:44:41;;;;;;;0.00;0.00;;;;;;;;;;4977747;28;20481;-70
2023/10/21 07:47:07;;;;;;;0.00;0.00;;;;;;;;;;4975131;28;20041;-70
2023/10/21 07:49:33;;;;;;;0.00;0.00;;;;;;;;;;4976029;28;20042;-71
2023/10/21 07:51:59;;;;;;;0.00;0.00;;;;;;;;;;4982994;28;20393;-72
2023/10/21 07:54:25;;;;;;;0.00;0.00;;;;;;;;;;4981341;28;20052;-74
2023/10/21 07:56:53;;;;;;;0.00;0.00;;;;;;;;;;4976015;28;20781;-74
2023/10/21 07:59:19;;;;;;;0.00;0.00;;;;;;;;;;4981470;28;20034;-71
2023/10/21 08:01:45;;;;;;;0.00;0.00;;;;;;;;;;4980255;28;20565;-71
2023/10/21 08:04:11;;;;;;;0.00;0.00;;;;;;;;;;4973434;28;20169;-71
2023/10/21 08:06:38;;;;;;;0.00;0.00;;;;;;;;;;4976537;28;20371;-71
2023/10/21 08:09:04;;;;;;;0.00;0.00;;;;;;;;;;4975564;28;20038;-71
2023/10/21 08:11:31;;;;;;;0.00;0.00;;;;;;;;;;4974151;28;20035;-71
2023/10/21 08:13:57;;;;;;;0.00;0.00;;;;;;;;;;4977339;28;20479;-71
2023/10/21 08:16:23;;;;;;;0.00;0.00;;;;;;;;;;4971793;28;20046;-71
2023/10/21 08:18:50;;;;;;;0.00;0.00;;;;;;;;;;4975459;28;20060;-70
2023/10/21 08:21:16;;;;;;;0.00;0.00;;;;;;;;;;4973203;28;20039;-70
2023/10/21 08:23:42;;;;;;;0.00;0.00;;;;;;;;;;4979055;28;20581;-70
2023/10/21 08:26:08;;;;;;;0.00;0.00;;;;;;;;;;4970838;28;20077;-70
2023/10/21 08:28:34;;;;;;;0.00;0.00;;;;;;;;;;4976463;28;20821;-70
2023/10/21 08:31:00;;;;;;;0.00;0.00;;;;;;;;;;4972720;28;20067;-70
2023/10/21 08:33:26;;;;;;;0.00;0.00;;;;;;;;;;4971830;28;20036;-71
2023/10/21 08:35:52;;;;;;;0.00;0.00;;;;;;;;;;4975144;28;20394;-70
2023/10/21 08:38:18;;;;;;;0.00;0.00;;;;;;;;;;4985642;28;20026;-70
2023/10/21 08:40:47;;;;;;;0.00;0.00;;;;;;;;;;4977869;28;20533;-69
2023/10/21 08:43:17;;;;;;;0.00;0.00;;;;;;;;;;4976602;28;20578;-69
2023/10/21 08:45:44;;;;;;;0.00;0.00;;;;;;;;;;4970991;28;20054;-70
2023/10/21 08:48:12;;;;;;;0.00;0.00;;;;;;;;;;4978537;28;20913;-70
2023/10/21 08:50:39;;;;;;;0.00;0.00;;;;;;;;;;4982437;28;20667;-70
2023/10/21 08:53:11;;;;;;;0.00;0.00;;;;;;;;;;4984045;28;20053;-70
2023/10/21 08:55:38;;;;;;;0.00;0.00;;;;;;;;;;4958172;28;20077;-70
2023/10/21 08:58:06;;;;;;;0.00;0.00;;;;;;;;;;4972247;28;20054;-68
2023/10/21 09:00:32;;;;;;;0.00;0.00;;;;;;;;;;4977319;28;20113;-68
2023/10/21 09:02:58;;;;;;;0.00;0.00;;;;;;;;;;4976721;28;20088;-68
2023/10/21 09:05:24;;;;;;;0.00;0.00;;;;;;;;;;4977346;28;20541;-68
2023/10/21 09:07:50;;;;;;;0.00;0.00;;;;;;;;;;4981189;28;20038;-69
2023/10/21 09:10:17;;;;;;;0.00;0.00;;;;;;;;;;4972625;28;20988;-69
2023/10/21 09:12:43;;;;;;;0.00;0.00;;;;;;;;;;4977260;28;20038;-69
2023/10/21 09:15:09;;;;;;;0.00;0.00;;;;;;;;;;4969291;28;20034;-69
2023/10/21 09:17:36;;;;;;;0.00;0.00;;;;;;;;;;4972708;28;20521;-70
2023/10/21 09:20:11;;;;;;;0.00;0.00;;;;;;;;;;4961778;28;20078;-69
2023/10/21 09:22:38;;;;;;;0.00;0.00;;;;;;;;;;5010765;28;20573;-69
2023/10/21 09:25:15;;;;;;;0.00;0.00;;;;;;;;;;4986255;28;20397;-70
2023/10/21 09:27:41;;;;;;;0.00;0.00;;;;;;;;;;4995562;28;20366;-70
2023/10/21 09:30:07;;;;;;;0.00;0.00;;;;;;;;;;4996968;28;20520;-70
2023/10/21 09:32:33;;;;;;;0.00;0.00;;;;;;;;;;4994669;28;20124;-70
2023/10/21 09:35:30;;;;;;;0.00;0.00;;;;;;;;;;4998617;28;20034;-70
2023/10/21 09:37:56;;;;;;;0.00;0.00;;;;;;;;;;4975084;28;20042;-70
2023/10/21 09:40:24;;;;;;;0.00;0.00;;;;;;;;;;4976253;28;20108;-70
2023/10/21 09:42:52;;;;;;;0.00;0.00;;;;;;;;;;4980078;28;20042;-70
2023/10/21 09:45:18;;;;;;;0.00;0.00;;;;;;;;;;4976755;28;20046;-70
2023/10/21 09:47:48;;;;;;;0.00;0.00;;;;;;;;;;4976198;28;20394;-69
2023/10/21 09:50:14;;;;;;;0.00;0.00;;;;;;;;;;4970255;28;20062;-70
2023/10/21 09:52:45;;;;;;;0.00;0.00;;;;;;;;;;4974217;28;20066;-69
2023/10/21 09:55:11;;;;;;;0.00;0.00;;;;;;;;;;4975546;28;20474;-69
2023/10/21 09:57:38;;;;;;;0.00;0.00;;;;;;;;;;4975811;28;20096;-68
2023/10/21 10:00:07;;;;;;;0.00;0.00;;;;;;;;;;4976521;28;20072;-68
2023/10/21 10:02:34;;;;;;;0.00;0.00;;;;;;;;;;4975022;28;20153;-71
2023/10/21 10:05:00;;;;;;;0.00;0.00;;;;;;;;;;4975243;28;20072;-68
2023/10/21 10:07:27;;;;;;;0.00;0.00;;;;;;;;;;4972285;28;20811;-68
2023/10/21 10:09:53;;;;;;;0.00;0.00;;;;;;;;;;4973935;28;20042;-68
2023/10/21 10:12:23;;;;;;;0.00;0.00;;;;;;;;;;4974435;28;20411;-68
2023/10/21 10:14:49;;;;;;;0.00;0.00;;;;;;;;;;4976569;28;20034;-68
2023/10/21 10:17:35;;;;;;;0.00;0.00;;;;;;;;;;4975689;28;20740;-68
2023/10/21 10:20:18;;;;;;;0.00;0.00;;;;;;;;;;4974484;28;20042;-69
2023/10/21 10:22:44;;;;;;;0.00;0.00;;;;;;;;;;4981442;28;20126;-69
2023/10/21 10:25:10;;;;;;;0.00;0.00;;;;;;;;;;4973239;28;20038;-69
2023/10/21 10:27:42;;;;;;;0.00;0.00;;;;;;;;;;4977912;28;20065;-70
2023/10/21 10:30:15;;;;;;;0.00;0.00;;;;;;;;;;4974671;28;20042;-69
2023/10/21 10:32:43;;;;;;;0.00;0.00;;;;;;;;;;4973319;28;20034;-69
2023/10/21 10:35:09;;;;;;;0.00;0.00;;;;;;;;;;4974684;28;20439;-69
2023/10/21 10:37:37;;;;;;;0.00;0.00;;;;;;;;;;4974947;28;20049;-69
2023/10/21 10:40:18;;;;;;;0.00;0.00;;;;;;;;;;4975074;28;20053;-69
2023/10/21 10:42:44;;;;;;;0.00;0.00;;;;;;;;;;4984215;28;20038;-68
2023/10/21 10:45:10;;;;;;;0.00;0.00;;;;;;;;;;4978563;28;20509;-69
2023/10/21 10:47:38;;;;;;;0.00;0.00;;;;;;;;;;4978521;28;20130;-69
2023/10/21 10:50:12;;;;;;;0.00;0.00;;;;;;;;;;4975543;28;20038;-69
2023/10/21 10:52:38;;;;;;;0.00;0.00;;;;;;;;;;4975616;28;20034;-68
2023/10/21 10:55:08;;;;;;;0.00;0.00;;;;;;;;;;4983548;28;20046;-69
2023/10/21 10:57:34;;;;;;;0.00;0.00;;;;;;;;;;4976537;28;20038;-69
2023/10/21 11:00:00;;;;;;;0.00;0.00;;;;;;;;;;4975933;28;20092;-69
2023/10/21 11:02:28;;;;;;;0.00;0.00;;;;;;;;;;4974138;28;21054;-68
2023/10/21 11:04:58;;;;;;;0.00;0.00;;;;;;;;;;4977517;28;20548;-68
2023/10/21 11:07:26;;;;;;;0.00;0.00;;;;;;;;;;4975257;28;20038;-68
2023/10/21 11:10:02;;;;;;;0.00;0.00;;;;;;;;;;4984318;28;20046;-69
2023/10/21 11:12:28;;;;;;;0.00;0.00;;;;;;;;;;4996618;28;20085;-69
2023/10/21 11:14:54;;;;;;;0.00;0.00;;;;;;;;;;4980422;28;21350;-69
2023/10/21 11:17:20;;;;;;;0.00;0.00;;;;;;;;;;4983925;28;20034;-68
2023/10/21 11:19:46;;;;;;;0.00;0.00;;;;;;;;;;4975774;28;20053;-69
2023/10/21 11:22:25;;;;;;;0.00;0.00;;;;;;;;;;4975130;28;20034;-68
2023/10/21 11:24:51;;;;;;;0.00;0.00;;;;;;;;;;4976389;28;20462;-69
2023/10/21 11:27:17;;;;;;;0.00;0.00;;;;;;;;;;4975684;28;20070;-68
2023/10/21 11:29:43;;;;;;;0.00;0.00;;;;;;;;;;4975769;28;20038;-69
2023/10/21 11:32:14;;;;;;;0.00;0.00;;;;;;;;;;4983087;28;20122;-69
2023/10/21 11:34:46;;;;;;;0.00;0.00;;;;;;;;;;4977028;28;20121;-68
2023/10/21 11:37:12;;;;;;;0.00;0.00;;;;;;;;;;4974556;28;20041;-70
2023/10/21 11:39:40;;;;;;;0.00;0.00;;;;;;;;;;4976694;28;20541;-69
2023/10/21 11:42:15;;;;;;;0.00;0.00;;;;;;;;;;4976823;28;20585;-69
2023/10/21 11:44:41;;;;;;;0.00;0.00;;;;;;;;;;4976475;28;20053;-68
2023/10/21 11:47:07;;;;;;;0.00;0.00;;;;;;;;;;4985719;28;20396;-68
2023/10/21 11:49:34;;;;;;;0.00;0.00;;;;;;;;;;4977193;28;20168;-69
2023/10/21 11:52:00;;;;;;;0.00;0.00;;;;;;;;;;4974956;28;20402;-68
2023/10/21 12:08:49;;;;;;;0.00;0.00;;;;;;;;;;4978624;28;20505;-69
2023/10/21 12:24:07;;;;;;;0.00;0.00;;;;;;;;;;4985808;28;20913;-69
2023/10/21 12:30:12;;;;;;;0.00;0.00;;;;;;;;;;4978335;28;20124;-70
2023/10/21 12:40:30;;;;;;;0.00;0.00;;;;;;;;;;4991293;28;20038;-68
2023/10/21 12:42:35;;;;;;;0.00;0.00;;;;;;;;;;4975137;28;20169;-69
2023/10/21 12:45:10;;;;;;;0.00;0.00;;;;;;;;;;4975411;28;20463;-68
2023/10/21 12:47:36;;;;;;;0.00;0.00;;;;;;;;;;4985079;28;20058;-69
2023/10/21 12:50:12;;;;;;;0.00;0.00;;;;;;;;;;4979216;28;20109;-69
2023/10/21 12:52:38;;;;;;;0.00;0.00;;;;;;;;;;4991572;28;20037;-69
2023/10/21 12:55:10;;;;;;;0.00;0.00;;;;;;;;;;4976851;28;20550;-67
2023/10/21 12:57:36;;;;;;;0.00;0.00;;;;;;;;;;4978023;28;20045;-68
2023/10/21 13:00:03;;;;;;;0.00;0.00;;;;;;;;;;4978632;28;20056;-69
2023/10/21 13:02:29;;;;;;;0.00;0.00;;;;;;;;;;4986109;28;20057;-68
2023/10/21 13:04:55;;;;;;;0.00;0.00;;;;;;;;;;4977936;28;20414;-68
2023/10/21 13:07:21;;;;;;;0.00;0.00;;;;;;;;;;4984047;28;20038;-69
2023/10/21 13:09:47;;;;;;;0.00;0.00;;;;;;;;;;4987811;28;20035;-68
2023/10/21 13:12:16;;;;;;;0.00;0.00;;;;;;;;;;4979427;28;20735;-68
2023/10/21 13:14:42;;;;;;;0.00;0.00;;;;;;;;;;4978240;28;20052;-68
2023/10/21 13:17:08;;;;;;;0.00;0.00;;;;;;;;;;4978093;28;20038;-68
2023/10/21 13:19:35;;;;;;;0.00;0.00;;;;;;;;;;4978547;28;20042;-69
2023/10/21 13:22:01;;;;;;;0.00;0.00;;;;;;;;;;4978212;28;20038;-69
2023/10/21 13:24:27;;;;;;;0.00;0.00;;;;;;;;;;4977655;28;20126;-69
2023/10/21 13:26:53;;;;;;;0.00;0.00;;;;;;;;;;4991878;28;20554;-71
2023/10/21 13:29:19;;;;;;;0.00;0.00;;;;;;;;;;4976783;28;20038;-71
2023/10/21 13:31:45;;;;;;;0.00;0.00;;;;;;;;;;4982669;28;20037;-71
2023/10/21 13:34:11;;;;;;;0.00;0.00;;;;;;;;;;4976432;28;21934;-70
2023/10/21 13:36:37;;;;;;;0.00;0.00;;;;;;;;;;4977015;28;20049;-70
2023/10/21 13:39:15;;;;;;;0.00;0.00;;;;;;;;;;4973531;28;20125;-70
2023/10/21 13:41:42;;;;;;;0.00;0.00;;;;;;;;;;4983270;28;20061;-71
2023/10/21 13:44:08;;;;;;;0.00;0.00;;;;;;;;;;4977188;28;20740;-71
2023/10/21 13:46:34;;;;;;;0.00;0.00;;;;;;;;;;4982408;28;20041;-71
2023/10/21 13:49:02;;;;;;;0.00;0.00;;;;;;;;;;4975158;28;20045;-71
2023/10/21 13:51:28;;;;;;;0.00;0.00;;;;;;;;;;4973352;28;20681;-71
2023/10/21 13:53:54;;;;;;;0.00;0.00;;;;;;;;;;4980840;28;20100;-70
2023/10/21 13:56:20;;;;;;;0.00;0.00;;;;;;;;;;4974496;28;20772;-71
2023/10/21 13:58:46;;;;;;;0.00;0.00;;;;;;;;;;4983192;28;20116;-71
2023/10/21 14:01:13;;;;;;;0.00;0.00;;;;;;;;;;4981880;28;20058;-68
2023/10/21 14:03:39;;;;;;;0.00;0.00;;;;;;;;;;4976477;28;20189;-71
2023/10/21 14:06:05;;;;;;;0.00;0.00;;;;;;;;;;4977664;28;20111;-72
2023/10/21 14:08:32;;;;;;;0.00;0.00;;;;;;;;;;4966893;28;20030;-72
2023/10/21 14:11:06;;;;;;;0.00;0.00;;;;;;;;;;4979258;28;20140;-72
2023/10/21 14:13:33;;;;;;;0.00;0.00;;;;;;;;;;4978970;28;20030;-71
2023/10/21 14:16:04;;;;;;;0.00;0.00;;;;;;;;;;4975664;28;20045;-72
2023/10/21 14:18:31;;;;;;;0.00;0.00;;;;;;;;;;4981972;28;20069;-72
2023/10/21 14:20:57;;;;;;;0.00;0.00;;;;;;;;;;4972674;28;20042;-72
2023/10/21 14:23:24;;;;;;;0.00;0.00;;;;;;;;;;4980890;28;20194;-72
2023/10/21 14:26:12;;;;;;;0.00;0.00;;;;;;;;;;4986828;28;20038;-73
2023/10/21 14:28:42;;;;;;;0.00;0.00;;;;;;;;;;4982439;28;20096;-72
2023/10/21 14:31:08;;;;;;;0.00;0.00;;;;;;;;;;4941152;28;20037;-73
2023/10/21 14:33:35;;;;;;;0.00;0.00;;;;;;;;;;4986449;28;20448;-72
2023/10/21 14:36:05;;;;;;;0.00;0.00;;;;;;;;;;4978182;28;20073;-72
2023/10/21 14:38:35;;;;;;;0.00;0.00;;;;;;;;;;4980222;28;20418;-71
2023/10/21 14:41:01;;;;;;;0.00;0.00;;;;;;;;;;4982855;28;20038;-73
2023/10/21 14:43:28;;;;;;;0.00;0.00;;;;;;;;;;4976797;28;20144;-73
2023/10/21 14:45:54;;;;;;;0.00;0.00;;;;;;;;;;4973139;28;20532;-72
2023/10/21 14:48:20;;;;;;;0.00;0.00;;;;;;;;;;4973106;28;20554;-73
2023/10/21 14:50:47;;;;;;;0.00;0.00;;;;;;;;;;4987180;28;20114;-72
2023/10/21 14:53:13;;;;;;;0.00;0.00;;;;;;;;;;4982331;28;20743;-73
2023/10/21 14:55:40;;;;;;;0.00;0.00;;;;;;;;;;4975715;28;20034;-73
2023/10/21 14:58:15;;;;;;;0.00;0.00;;;;;;;;;;4975481;28;20034;-74
2023/10/21 15:00:44;;;;;;;0.00;0.00;;;;;;;;;;4976512;28;20177;-73
2023/10/21 15:03:16;;;;;;;0.00;0.00;;;;;;;;;;4976666;28;20859;-72
2023/10/21 15:05:43;;;;;;;0.00;0.00;;;;;;;;;;4975016;28;20046;-73
2023/10/21 15:08:09;;;;;;;0.00;0.00;;;;;;;;;;4973188;28;20081;-73
2023/10/21 15:10:35;;;;;;;0.00;0.00;;;;;;;;;;4974612;28;20121;-73
2023/10/21 15:13:01;;;;;;;0.00;0.00;;;;;;;;;;4978174;28;20034;-73
2023/10/21 15:15:27;;;;;;;0.00;0.00;;;;;;;;;;4991305;28;20038;-73
2023/10/21 15:17:53;;;;;;;0.00;0.00;;;;;;;;;;4977425;28;20041;-72
2023/10/21 15:20:20;;;;;;;0.00;0.00;;;;;;;;;;4974904;28;20073;-73